Time;durP1;ratioP1;P1;durP2;ratioP2;P2;SDS_P1;SDS_P2;PMS_P1;PMS_P2;Temp;Humidity;BMP_temperature;BMP_pressure;BME280_temperature;BME280_humidity;BME280_pressure;Samples;Min_cycle;Max_cycle;Signal;HPM_P1;HPM_P2
2023/06/30 00:00:15;;;;;;;;;6.00;5.00;;;;;21.25;83.52;100809.97;4863170;29;45500;-72
2023/06/30 00:02:42;;;;;;;;;4.33;4.00;;;;;21.29;83.43;100800.81;4845596;29;45479;-72
2023/06/30 00:05:08;;;;;;;;;7.33;7.33;;;;;21.35;83.22;100809.66;4845282;29;48216;-72
2023/06/30 00:07:33;;;;;;;;;8.00;8.00;;;;;21.26;83.54;100812.63;4845198;29;45800;-72
2023/06/30 00:10:00;;;;;;;;;7.67;7.67;;;;;21.34;83.26;100810.56;4845574;29;45316;-72
2023/06/30 00:12:25;;;;;;;;;9.00;9.00;;;;;21.24;83.14;100810.91;4861904;29;45598;-72
2023/06/30 00:14:50;;;;;;;;;6.00;6.00;;;;;21.26;83.45;100809.91;4861837;29;46047;-71
2023/06/30 00:17:16;;;;;;;;;6.00;6.00;;;;;21.24;82.87;100800.97;4861803;29;45634;-72
2023/06/30 00:19:41;;;;;;;;;5.33;5.33;;;;;21.27;83.29;100802.69;4861863;29;45452;-71
2023/06/30 00:22:07;;;;;;;;;5.00;5.00;;;;;21.23;82.27;100799.22;4861457;29;45419;-73
2023/06/30 00:24:33;;;;;;;;;8.00;8.00;;;;;21.26;81.76;100795.50;4844744;29;45495;-71
2023/06/30 00:26:58;;;;;;;;;6.67;6.67;;;;;21.26;81.67;100801.81;4862026;29;45910;-72
2023/06/30 00:29:23;;;;;;;;;6.67;6.67;;;;;21.24;81.01;100794.69;4845076;29;45456;-72
2023/06/30 00:31:49;;;;;;;;;9.67;9.67;;;;;21.28;80.67;100804.47;4860716;29;45419;-72
2023/06/30 00:34:14;;;;;;;;;10.33;9.00;;;;;21.27;80.10;100795.47;4861164;29;45421;-71
2023/06/30 00:36:40;;;;;;;;;7.00;7.00;;;;;21.25;79.74;100807.25;4861722;29;45430;-71
2023/06/30 00:39:05;;;;;;;;;5.33;5.00;;;;;21.18;80.58;100793.03;4861749;29;45466;-72
2023/06/30 00:41:30;;;;;;;;;6.33;6.33;;;;;21.22;79.76;100796.53;4862086;29;45473;-71
2023/06/30 00:43:58;;;;;;;;;6.67;6.00;;;;;21.23;79.88;100795.59;4861829;29;45515;-72
2023/06/30 00:46:23;;;;;;;;;4.00;3.33;;;;;21.15;79.17;100801.25;4861725;29;45489;-71
2023/06/30 00:48:49;;;;;;;;;12.00;10.00;;;;;21.20;79.27;100804.69;4861892;29;45274;-71
2023/06/30 00:51:14;;;;;;;;;10.00;10.00;;;;;21.24;79.03;100811.78;4861828;29;45498;-71
2023/06/30 00:53:40;;;;;;;;;6.00;6.00;;;;;21.18;78.69;100810.13;4861637;29;45395;-71
2023/06/30 00:56:07;;;;;;;;;7.33;7.33;;;;;21.14;78.84;100815.69;4844605;29;45509;-72
2023/06/30 00:58:33;;;;;;;;;11.33;8.67;;;;;21.04;78.55;100820.47;4861795;29;45388;-72
2023/06/30 01:01:06;;;;;;;;;9.00;9.00;;;;;21.10;78.77;100816.69;4861976;29;44849;-71
2023/06/30 01:04:17;;;;;;;;;16.67;16.67;;;;;21.13;78.21;100825.63;4861318;29;46526;-72
2023/06/30 01:06:54;;;;;;;;;3.00;2.67;;;;;21.04;77.88;100830.41;4803897;29;45809;-71
2023/06/30 01:09:23;;;;;;;;;3.67;3.67;;;;;20.85;78.12;100824.63;4803824;29;45468;-71
2023/06/30 01:11:50;;;;;;;;;3.00;3.00;;;;;20.86;78.22;100829.97;4803590;29;45877;-71
2023/06/30 01:14:17;;;;;;;;;2.33;2.33;;;;;20.81;77.99;100833.75;4787566;29;47917;-71
2023/06/30 01:16:44;;;;;;;;;2.33;2.33;;;;;20.69;78.25;100834.94;4803320;29;45584;-72
2023/06/30 01:19:39;;;;;;;;;4.00;4.00;;;;;20.71;78.73;100835.78;4803526;29;45930;-71
2023/06/30 01:22:59;;;;;;;;;11.00;11.00;;;;;20.70;78.70;100836.72;4802196;29;45570;-71
2023/06/30 01:25:29;;;;;;;;;18.00;18.00;;;;;20.57;79.44;100845.09;4766596;29;45909;-71
2023/06/30 01:27:56;;;;;;;;;31.67;30.00;;;;;20.38;79.08;100843.81;4752330;29;46075;-71
2023/06/30 01:30:22;;;;;;;;;32.33;29.33;;;;;20.32;80.26;100835.84;4766620;29;45540;-73
2023/06/30 01:32:50;;;;;;;;;22.67;20.33;;;;;20.35;79.89;100838.47;4751855;29;45693;-71
2023/06/30 01:35:16;;;;;;;;;16.33;15.67;;;;;20.30;80.36;100837.69;4766652;29;45563;-71
2023/06/30 01:37:41;;;;;;;;;16.33;16.33;;;;;20.28;80.66;100844.94;4777069;29;45522;-71
2023/06/30 01:40:07;;;;;;;;;16.67;15.33;;;;;20.31;80.97;100844.88;4784280;29;45441;-71
2023/06/30 01:42:35;;;;;;;;;16.00;13.00;;;;;20.34;81.96;100844.78;4784190;29;45482;-71
2023/06/30 01:45:02;;;;;;;;;19.67;19.33;;;;;20.26;81.54;100846.78;4783445;29;46187;-71
2023/06/30 01:47:28;;;;;;;;;24.67;23.67;;;;;20.29;80.68;100844.03;4783898;29;45505;-71
2023/06/30 01:49:54;;;;;;;;;32.67;29.67;;;;;20.35;80.80;100843.88;4783923;29;45829;-71
2023/06/30 01:52:19;;;;;;;;;32.00;29.67;;;;;20.42;80.95;100850.00;4784274;29;45391;-71
2023/06/30 01:54:44;;;;;;;;;48.33;40.33;;;;;20.42;81.62;100852.72;4783703;29;45634;-72
2023/06/30 01:57:11;;;;;;;;;40.67;37.00;;;;;20.44;80.76;100843.66;4783658;29;45428;-72
2023/06/30 01:59:36;;;;;;;;;39.67;34.00;;;;;20.39;80.37;100840.16;4768999;29;45520;-72
2023/06/30 02:02:01;;;;;;;;;30.00;27.00;;;;;20.41;80.34;100832.91;4816242;29;45574;-71
2023/06/30 02:04:27;;;;;;;;;32.00;30.33;;;;;20.37;80.94;100832.09;4841484;29;45615;-71
2023/06/30 02:06:52;;;;;;;;;36.67;32.33;;;;;20.32;81.66;100833.13;4844248;29;45432;-71
2023/06/30 02:09:18;;;;;;;;;28.00;24.67;;;;;20.33;80.93;100833.09;4843958;29;45946;-71
2023/06/30 02:11:43;;;;;;;;;32.33;30.00;;;;;20.29;81.23;100844.03;4844964;29;45457;-71
2023/06/30 02:14:08;;;;;;;;;26.00;24.00;;;;;20.17;81.14;100832.59;4845067;29;45851;-71
2023/06/30 02:16:34;;;;;;;;;25.33;25.33;;;;;20.12;81.88;100836.34;4844629;29;45390;-72
2023/06/30 02:18:59;;;;;;;;;25.67;24.33;;;;;20.10;81.78;100830.09;4844948;29;45659;-71
2023/06/30 02:21:25;;;;;;;;;22.33;20.00;;;;;20.05;81.70;100832.88;4859274;29;45533;-72
2023/06/30 02:23:50;;;;;;;;;24.00;23.67;;;;;20.03;81.65;100832.03;4844534;29;45420;-72
2023/06/30 02:26:16;;;;;;;;;26.67;25.67;;;;;20.02;81.19;100841.06;4843296;29;45542;-72
2023/06/30 02:28:41;;;;;;;;;28.00;25.67;;;;;20.02;81.75;100842.84;4844402;29;45853;-72
2023/06/30 02:31:07;;;;;;;;;24.33;24.00;;;;;20.03;81.43;100840.13;4844433;29;45377;-71
2023/06/30 02:33:34;;;;;;;;;32.33;29.33;;;;;20.03;81.53;100833.84;4858733;29;46081;-72
2023/06/30 02:36:00;;;;;;;;;28.33;28.33;;;;;19.93;81.44;100838.56;4862521;29;45728;-72
2023/06/30 02:38:25;;;;;;;;;39.67;34.00;;;;;19.93;81.63;100838.56;4862749;29;45425;-72
2023/06/30 02:40:50;;;;;;;;;39.67;35.00;;;;;19.88;81.59;100835.09;4862886;29;45542;-72
2023/06/30 02:43:16;;;;;;;;;42.67;37.00;;;;;19.92;81.87;100836.81;4862088;29;45395;-72
2023/06/30 02:45:48;;;;;;;;;49.67;39.33;;;;;19.89;81.33;100840.44;4845284;29;45711;-72
2023/06/30 02:48:13;;;;;;;;;49.33;40.67;;;;;19.92;81.70;100837.69;4862557;29;45822;-71
2023/06/30 02:50:39;;;;;;;;;47.67;40.00;;;;;19.95;81.60;100836.72;4845662;29;45525;-72
2023/06/30 02:53:04;;;;;;;;;50.67;41.67;;;;;19.95;81.54;100836.72;4862550;29;45427;-72
2023/06/30 02:55:33;;;;;;;;;49.00;42.00;;;;;20.03;81.57;100842.84;4845946;29;45572;-71
2023/06/30 02:57:58;;;;;;;;;48.33;40.33;;;;;19.94;80.91;100840.38;4862778;29;45444;-71
2023/06/30 03:00:23;;;;;;;;;52.67;42.00;;;;;19.93;80.89;100839.44;4863272;29;45376;-71
2023/06/30 03:02:49;;;;;;;;;37.33;30.67;;;;;19.88;80.84;100840.50;4845826;29;46720;-71
2023/06/30 03:05:14;;;;;;;;;51.00;41.00;;;;;19.85;80.89;100836.03;4863686;29;45500;-72
2023/06/30 03:07:41;;;;;;;;;32.67;31.00;;;;;19.90;80.79;100831.44;4846758;29;45391;-71
2023/06/30 03:10:07;;;;;;;;;32.67;30.67;;;;;19.89;80.26;100831.47;4846114;29;45529;-72
2023/06/30 03:12:32;;;;;;;;;33.00;30.00;;;;;19.89;80.40;100831.47;4863393;29;45850;-72
2023/06/30 03:14:57;;;;;;;;;21.33;21.33;;;;;19.91;80.06;100829.63;4846334;29;45583;-72
2023/06/30 03:17:25;;;;;;;;;18.33;17.33;;;;;19.88;80.30;100840.50;4862773;29;45482;-72
2023/06/30 03:19:52;;;;;;;;;13.67;9.67;;;;;19.87;80.10;100828.81;4863068;29;45352;-73
2023/06/30 03:22:17;;;;;;;;;16.00;16.00;;;;;19.81;80.36;100830.75;4845281;29;47470;-71
2023/06/30 03:24:46;;;;;;;;;17.00;16.00;;;;;19.78;80.42;100829.91;4862601;29;45538;-71
2023/06/30 03:27:11;;;;;;;;;12.67;12.67;;;;;19.76;80.67;100831.75;4863418;29;45478;-72
2023/06/30 03:29:36;;;;;;;;;10.00;8.67;;;;;19.74;80.47;100833.59;4862080;29;51066;-72
2023/06/30 03:32:02;;;;;;;;;10.33;10.33;;;;;19.70;80.62;100822.88;4861154;29;47035;-71
2023/06/30 03:34:27;;;;;;;;;12.00;12.00;;;;;19.71;80.82;100820.19;4862874;29;45443;-72
2023/06/30 03:36:52;;;;;;;;;10.33;10.33;;;;;19.67;81.15;100818.41;4846273;29;45534;-72
2023/06/30 03:39:18;;;;;;;;;12.67;10.33;;;;;19.66;80.87;100815.78;4862222;29;45435;-72
2023/06/30 03:41:44;;;;;;;;;9.00;9.00;;;;;19.70;81.01;100820.19;4862472;29;54934;-72
2023/06/30 03:44:11;;;;;;;;;6.33;6.33;;;;;19.61;80.73;100815.84;4862669;29;45810;-72
2023/06/30 03:46:37;;;;;;;;;11.33;10.00;;;;;19.59;80.39;100817.69;4845569;29;45354;-72
2023/06/30 03:49:02;;;;;;;;;9.00;9.00;;;;;19.60;80.53;100819.50;4862193;29;45394;-72
2023/06/30 03:51:28;;;;;;;;;11.33;9.33;;;;;19.55;80.87;100826.78;4845091;29;47325;-72
2023/06/30 03:53:53;;;;;;;;;10.00;10.00;;;;;19.55;80.45;100826.78;4862697;29;45409;-71
2023/06/30 03:56:19;;;;;;;;;7.33;6.00;;;;;19.52;80.27;100833.13;4862577;29;45443;-72
2023/06/30 03:58:45;;;;;;;;;11.00;11.00;;;;;19.51;81.35;100825.06;4845344;29;45783;-72
2023/06/30 04:01:11;;;;;;;;;12.00;10.00;;;;;19.40;81.34;100828.00;4862023;29;45413;-71
2023/06/30 04:03:37;;;;;;;;;8.00;7.67;;;;;19.42;81.26;100830.69;4862465;29;45468;-71
2023/06/30 04:06:03;;;;;;;;;11.00;11.00;;;;;19.34;82.33;100823.63;4860745;29;45506;-72
2023/06/30 04:08:29;;;;;;;;;10.33;10.00;;;;;19.23;82.82;100822.97;4862325;29;45487;-72
2023/06/30 04:10:55;;;;;;;;;12.67;11.67;;;;;19.17;84.81;100837.47;4860432;29;46851;-72
2023/06/30 04:13:20;;;;;;;;;11.33;9.00;;;;;19.15;85.61;100835.72;4845102;29;45987;-72
2023/06/30 04:15:45;;;;;;;;;14.33;12.67;;;;;19.13;84.55;100832.19;4862220;29;45653;-72
2023/06/30 04:18:11;;;;;;;;;18.00;12.00;;;;;19.13;85.96;100833.06;4862459;29;45424;-72
2023/06/30 04:20:36;;;;;;;;;10.33;10.33;;;;;19.16;85.92;100830.28;4861767;29;45401;-72
2023/06/30 04:23:02;;;;;;;;;7.67;7.67;;;;;19.21;85.76;100827.50;4861627;29;45516;-72
2023/06/30 04:25:27;;;;;;;;;7.00;6.67;;;;;19.15;85.92;100824.94;4861792;29;45465;-72
2023/06/30 04:27:53;;;;;;;;;7.67;6.00;;;;;19.20;86.18;100828.41;4844297;29;45412;-72
2023/06/30 04:30:20;;;;;;;;;7.67;6.67;;;;;19.27;86.23;100826.47;4861627;29;46260;-72
2023/06/30 04:32:46;;;;;;;;;5.00;4.67;;;;;19.15;85.85;100830.34;4860204;29;45479;-72
2023/06/30 04:35:18;;;;;;;;;5.67;5.67;;;;;19.22;87.16;100839.19;4861904;29;45478;-72
2023/06/30 04:37:44;;;;;;;;;5.33;4.67;;;;;19.08;86.90;100826.84;4861602;29;45303;-72
2023/06/30 04:40:09;;;;;;;;;4.33;4.33;;;;;19.13;87.09;100840.25;4861393;29;46167;-72
2023/06/30 04:42:37;;;;;;;;;5.00;5.00;;;;;19.21;87.64;100830.22;4844156;29;45575;-73
2023/06/30 04:45:02;;;;;;;;;4.00;4.00;;;;;19.26;87.74;100836.38;4861718;29;45401;-71
2023/06/30 04:47:28;;;;;;;;;5.00;5.00;;;;;19.28;86.66;100818.38;4859747;29;45617;-71
2023/06/30 04:49:54;;;;;;;;;5.00;4.67;;;;;19.29;86.88;100830.03;4860844;29;46012;-71
2023/06/30 04:52:19;;;;;;;;;3.33;3.33;;;;;19.34;86.53;100829.03;4860633;29;45680;-71
2023/06/30 04:54:45;;;;;;;;;2.33;1.67;;;;;19.46;86.77;100829.69;4860029;29;45437;-71
2023/06/30 04:57:10;;;;;;;;;4.00;4.00;;;;;19.54;86.04;100822.31;4861605;29;45477;-71
2023/06/30 04:59:36;;;;;;;;;4.00;4.00;;;;;19.63;85.30;100814.00;4860822;29;46357;-71
2023/06/30 05:02:04;;;;;;;;;4.00;4.00;;;;;19.67;85.53;100814.84;4861274;29;45302;-72
2023/06/30 05:04:30;;;;;;;;;4.00;3.67;;;;;19.73;84.91;100823.75;4861794;29;45444;-71
2023/06/30 05:06:55;;;;;;;;;3.67;3.67;;;;;19.67;84.61;100818.41;4844471;29;45574;-71
2023/06/30 05:09:24;;;;;;;;;4.00;4.00;;;;;19.73;85.04;100810.25;4861400;29;46930;-71
2023/06/30 05:11:49;;;;;;;;;6.00;6.00;;;;;19.67;84.90;100825.63;4861236;29;45401;-70
2023/06/30 05:14:15;;;;;;;;;6.00;6.00;;;;;19.66;84.65;100822.06;4861019;29;45746;-72
2023/06/30 05:16:40;;;;;;;;;5.00;3.00;;;;;19.64;84.44;100818.50;4861612;29;45440;-71
2023/06/30 05:19:06;;;;;;;;;4.00;4.00;;;;;19.73;84.58;100831.84;4861072;29;45346;-72
2023/06/30 05:21:31;;;;;;;;;4.67;4.67;;;;;19.79;83.89;100841.56;4860578;29;45419;-71
2023/06/30 05:23:56;;;;;;;;;5.67;5.67;;;;;19.77;83.81;100835.34;4843734;29;45380;-72
2023/06/30 05:26:22;;;;;;;;;5.67;5.00;;;;;19.84;83.66;100839.69;4844742;29;45399;-71
2023/06/30 05:28:48;;;;;;;;;4.67;4.67;;;;;19.93;83.75;100838.56;4861068;29;45404;-71
2023/06/30 05:31:14;;;;;;;;;6.00;6.00;;;;;19.96;83.60;100836.69;4860709;29;45780;-72
2023/06/30 05:33:39;;;;;;;;;5.00;5.00;;;;;20.12;82.64;100842.63;4859906;29;45444;-72
2023/06/30 05:36:04;;;;;;;;;5.00;5.00;;;;;20.25;82.26;100834.22;4861115;29;45572;-72
2023/06/30 05:38:30;;;;;;;;;5.00;5.00;;;;;20.42;81.45;100836.50;4844717;29;47173;-71
2023/06/30 05:40:56;;;;;;;;;5.67;5.67;;;;;20.56;80.66;100837.03;4864252;29;45437;-72
2023/06/30 05:43:25;;;;;;;;;8.00;7.67;;;;;20.66;80.17;100840.41;4864755;29;45519;-72
2023/06/30 05:45:50;;;;;;;;;9.00;7.00;;;;;20.63;79.58;100841.41;4865357;29;45356;-72
2023/06/30 05:48:17;;;;;;;;;4.75;4.75;;;;;20.71;77.75;100836.69;4864531;29;46089;-73
2023/06/30 05:50:45;;;;;;;;;6.67;6.67;;;;;20.68;78.32;100834.06;4864438;29;45315;-72
2023/06/30 05:53:10;;;;;;;;;8.00;7.67;;;;;20.83;77.74;100843.56;4864496;29;45463;-72
2023/06/30 05:55:35;;;;;;;;;7.67;7.67;;;;;20.93;77.55;100838.81;4863548;29;45468;-73
2023/06/30 05:58:01;;;;;;;;;8.33;7.33;;;;;21.05;76.54;100830.38;4863466;29;46165;-72
2023/06/30 06:00:27;;;;;;;;;7.67;6.67;;;;;21.10;75.79;100835.63;4862922;29;45518;-73
2023/06/30 06:02:53;;;;;;;;;9.00;9.00;;;;;21.16;75.32;100844.44;4863116;29;45612;-71
2023/06/30 06:05:18;;;;;;;;;7.00;7.00;;;;;21.27;75.57;100843.25;4863107;29;45472;-72
2023/06/30 06:07:43;;;;;;;;;9.00;7.33;;;;;21.42;74.67;100840.13;4862917;29;45502;-71
2023/06/30 06:10:09;;;;;;;;;10.00;10.00;;;;;21.48;73.49;100839.09;4846419;29;45542;-72
2023/06/30 06:12:38;;;;;;;;;8.00;7.33;;;;;21.56;73.30;100835.22;4846873;29;45521;-72
2023/06/30 06:15:04;;;;;;;;;10.67;7.00;;;;;21.61;73.56;100836.91;4845358;29;45605;-71
2023/06/30 06:17:29;;;;;;;;;8.00;8.00;;;;;21.75;73.47;100830.16;4862730;29;45711;-71
2023/06/30 06:19:56;;;;;;;;;9.33;8.00;;;;;21.96;70.98;100833.13;4862240;29;45881;-71
2023/06/30 06:22:24;;;;;;;;;6.00;6.00;;;;;21.91;70.76;100837.78;4867193;29;45829;-72
2023/06/30 06:24:50;;;;;;;;;8.00;6.67;;;;;21.92;70.58;100843.16;4849023;29;45621;-72
2023/06/30 06:27:15;;;;;;;;;5.00;3.33;;;;;22.11;69.52;100846.16;4863401;29;45924;-72
2023/06/30 06:29:41;;;;;;;;;7.00;7.00;;;;;22.23;69.97;100841.28;4846638;29;45434;-71
2023/06/30 06:32:07;;;;;;;;;9.67;6.33;;;;;22.36;68.45;100857.13;4845118;29;46065;-72
2023/06/30 06:34:33;;;;;;;;;10.33;10.33;;;;;22.30;66.74;100848.28;4846764;29;45436;-72
2023/06/30 06:37:00;;;;;;;;;10.33;9.00;;;;;22.31;67.30;100850.06;4860172;29;45948;-71
2023/06/30 06:39:25;;;;;;;;;6.00;5.00;;;;;22.20;67.24;100857.63;4868532;29;45403;-71
2023/06/30 06:41:51;;;;;;;;;9.67;8.67;;;;;22.33;67.27;100861.75;4845825;29;45496;-72
2023/06/30 06:44:17;;;;;;;;;7.00;6.67;;;;;22.50;66.76;100869.31;4863710;29;45448;-73
2023/06/30 06:46:43;;;;;;;;;9.33;9.33;;;;;22.41;65.07;100867.81;4863009;29;45515;-74
2023/06/30 06:49:12;;;;;;;;;9.00;8.00;;;;;22.49;65.04;100868.44;4856007;29;45576;-72
2023/06/30 06:51:38;;;;;;;;;10.67;10.67;;;;;22.46;66.35;100859.50;4848141;29;45533;-72
2023/06/30 06:54:03;;;;;;;;;8.00;8.00;;;;;22.50;66.21;100862.09;4834068;29;45873;-73
2023/06/30 06:56:29;;;;;;;;;9.00;7.67;;;;;22.50;65.34;100866.59;4845320;29;47120;-73
2023/06/30 06:58:54;;;;;;;;;9.67;9.00;;;;;22.53;65.10;100863.81;4861129;29;45529;-73
2023/06/30 07:01:20;;;;;;;;;11.00;10.00;;;;;22.72;65.57;100859.53;4863797;29;45493;-72
2023/06/30 07:03:46;;;;;;;;;7.67;7.67;;;;;23.00;64.71;100872.09;4846709;29;45483;-73
2023/06/30 07:06:11;;;;;;;;;6.33;6.33;;;;;22.96;63.88;100863.19;4854531;29;45508;-73
2023/06/30 07:08:39;;;;;;;;;11.33;10.00;;;;;22.88;64.03;100867.13;4859693;29;45427;-72
2023/06/30 07:11:08;;;;;;;;;10.50;9.75;;;;;22.91;64.69;100867.91;4862043;29;45547;-72
2023/06/30 07:13:34;;;;;;;;;10.00;8.33;;;;;23.17;64.63;100869.72;4843806;29;45324;-72
2023/06/30 07:15:59;;;;;;;;;8.33;8.33;;;;;23.40;63.70;100861.69;4844380;29;47093;-74
2023/06/30 07:18:25;;;;;;;;;9.00;9.00;;;;;23.69;63.55;100860.56;4844803;29;45843;-72
2023/06/30 07:20:54;;;;;;;;;5.67;5.67;;;;;23.93;62.28;100858.75;4844817;29;45475;-72
2023/06/30 07:23:23;;;;;;;;;8.00;6.50;;;;;23.98;60.78;100862.19;4862053;29;45476;-73
2023/06/30 07:25:48;;;;;;;;;6.25;5.25;;;;;24.12;60.46;100865.22;4857141;29;45685;-73
2023/06/30 07:28:14;;;;;;;;;7.75;7.75;;;;;24.31;59.35;100864.47;4841439;29;45599;-73
2023/06/30 07:30:41;;;;;;;;;6.33;6.33;;;;;24.46;59.38;100866.56;4860910;29;45728;-73
2023/06/30 07:33:06;;;;;;;;;9.50;9.00;;;;;24.58;59.37;100867.03;4859920;29;45380;-74
2023/06/30 07:35:32;;;;;;;;;10.00;10.00;;;;;24.61;58.58;100872.34;4859448;29;45397;-73
2023/06/30 07:37:57;;;;;;;;;7.00;7.00;;;;;24.62;58.60;100860.50;4859799;29;50808;-73
2023/06/30 07:40:23;;;;;;;;;6.67;6.67;;;;;24.81;58.22;100869.66;4856914;29;45417;-73
2023/06/30 07:42:48;;;;;;;;;10.33;6.00;;;;;24.96;56.88;100868.09;4860499;29;45792;-73
2023/06/30 07:45:15;;;;;;;;;10.00;9.00;;;;;25.06;56.80;100877.63;4830838;29;47389;-74
2023/06/30 07:47:42;;;;;;;;;8.00;6.00;;;;;25.07;56.69;100873.09;4859618;29;46384;-73
2023/06/30 07:50:15;;;;;;;;;10.25;9.50;;;;;25.19;55.97;100875.25;4859781;29;45445;-73
2023/06/30 07:52:43;;;;;;;;;7.33;7.33;;;;;25.02;54.68;100867.81;4842210;29;45532;-73
2023/06/30 07:55:09;;;;;;;;;8.00;8.00;;;;;24.91;55.09;100868.31;4859417;29;45533;-74
2023/06/30 07:57:35;;;;;;;;;8.00;8.00;;;;;24.94;55.32;100865.47;4859613;29;45542;-74
2023/06/30 08:00:01;;;;;;;;;7.67;7.33;;;;;25.04;55.20;100870.47;4842444;29;45809;-72
2023/06/30 08:02:28;;;;;;;;;9.00;9.00;;;;;25.12;52.93;100868.31;4842825;29;45047;-73
2023/06/30 08:04:53;;;;;;;;;8.00;7.00;;;;;25.00;53.70;100866.13;4843562;29;47319;-74
2023/06/30 08:07:25;;;;;;;;;7.00;7.00;;;;;24.97;53.58;100869.00;4846183;29;45883;-74
2023/06/30 08:09:51;;;;;;;;;8.33;8.33;;;;;24.98;53.96;100877.06;4862179;29;46291;-72
2023/06/30 08:12:16;;;;;;;;;5.33;5.33;;;;;25.05;53.77;100877.72;4861309;29;45451;-73
2023/06/30 08:14:44;;;;;;;;;7.67;7.67;;;;;25.21;53.39;100872.44;4861008;29;45513;-73
2023/06/30 08:17:15;;;;;;;;;12.00;9.67;;;;;25.33;53.12;100871.94;4845172;29;45429;-75
2023/06/30 08:19:42;;;;;;;;;11.00;9.00;;;;;25.12;52.98;100882.78;4860456;29;45483;-73
2023/06/30 08:22:09;;;;;;;;;8.33;8.33;;;;;25.05;52.69;100877.72;4840758;29;45499;-71
2023/06/30 08:24:35;;;;;;;;;9.00;9.00;;;;;24.93;52.82;100866.41;4856470;29;46254;-73
2023/06/30 08:27:05;;;;;;;;;8.33;8.00;;;;;25.00;52.38;100866.13;4842313;29;45405;-74
2023/06/30 08:29:30;;;;;;;;;9.67;7.33;;;;;24.93;52.21;100871.84;4860447;29;45484;-73
2023/06/30 08:31:59;;;;;;;;;9.00;9.00;;;;;25.07;52.19;100859.47;4854296;29;45425;-73
2023/06/30 08:34:25;;;;;;;;;13.00;12.00;;;;;25.04;51.78;100856.88;4839730;29;46929;-73
2023/06/30 08:36:55;;;;;;;;;7.00;7.00;;;;;25.27;52.03;100864.94;4839965;29;45463;-72
2023/06/30 08:39:22;;;;;;;;;8.67;8.67;;;;;25.44;52.11;100863.28;4839773;29;45471;-72
2023/06/30 08:41:49;;;;;;;;;7.33;7.33;;;;;25.58;51.49;100865.38;4830022;29;45531;-72
2023/06/30 08:44:16;;;;;;;;;8.00;8.00;;;;;25.60;50.08;100858.00;4842847;29;46025;-73
2023/06/30 08:46:41;;;;;;;;;8.67;8.67;;;;;25.64;50.74;100849.63;4837984;29;45440;-72
2023/06/30 08:49:13;;;;;;;;;9.00;8.33;;;;;25.78;49.75;100850.81;4842917;29;45459;-73
2023/06/30 08:51:40;;;;;;;;;8.67;8.67;;;;;25.96;48.80;100854.53;4840593;29;45586;-73
2023/06/30 08:54:06;;;;;;;;;7.33;6.00;;;;;26.00;47.26;100851.56;4841551;29;46842;-71
2023/06/30 08:56:35;;;;;;;;;8.00;6.00;;;;;26.08;48.66;100852.09;4835886;29;45529;-72
2023/06/30 08:59:01;;;;;;;;;8.33;8.33;;;;;26.10;46.92;100850.16;4855631;29;45443;-72
2023/06/30 09:01:38;;;;;;;;;8.33;6.67;;;;;26.13;47.49;100847.28;4851935;29;45492;-72
2023/06/30 09:04:05;;;;;;;;;8.00;8.00;;;;;26.20;47.95;100842.44;4834674;29;47538;-72
2023/06/30 09:06:35;;;;;;;;;6.00;6.00;;;;;26.32;48.13;100840.94;4840267;29;45442;-72
2023/06/30 09:09:12;;;;;;;;;6.00;6.00;;;;;26.39;46.58;100839.66;4851865;29;45364;-72
2023/06/30 09:11:39;;;;;;;;;7.33;7.33;;;;;26.29;46.39;100841.06;4837453;29;45522;-72
2023/06/30 09:14:08;;;;;;;;;2.00;2.00;;;;;26.33;44.54;100842.69;4842218;29;46192;-73
2023/06/30 09:16:34;;;;;;;;;4.67;4.67;;;;;26.20;46.26;100838.78;4838087;29;45437;-72
2023/06/30 09:18:59;;;;;;;;;5.25;5.25;;;;;26.25;45.40;100834.00;4855549;29;45492;-73
2023/06/30 09:21:25;;;;;;;;;5.00;5.00;;;;;26.29;45.33;100844.69;4841180;29;45791;-73
2023/06/30 09:23:53;;;;;;;;;4.50;4.00;;;;;26.30;46.19;100837.41;4841268;29;45572;-72
2023/06/30 09:26:21;;;;;;;;;3.00;3.00;;;;;26.48;45.20;100836.47;4837057;29;45884;-75
2023/06/30 09:28:47;;;;;;;;;5.00;5.00;;;;;26.55;45.65;100837.91;4842286;29;45375;-73
2023/06/30 09:31:12;;;;;;;;;6.67;5.00;;;;;26.73;44.22;100841.56;4841676;29;45424;-73
2023/06/30 09:33:43;;;;;;;;;6.00;6.00;;;;;26.75;44.06;100833.31;4840609;29;46750;-73
2023/06/30 09:36:29;;;;;;;;;5.00;5.00;;;;;27.00;43.27;100840.19;4838122;29;45589;-73
2023/06/30 09:38:57;;;;;;;;;4.00;4.00;;;;;26.99;42.05;100833.00;4838884;29;45559;-73
2023/06/30 09:41:26;;;;;;;;;5.00;5.00;;;;;26.97;42.92;100834.91;4841327;29;45417;-72
2023/06/30 09:43:58;;;;;;;;;4.67;4.67;;;;;27.01;43.78;100833.78;4831080;29;47403;-73
2023/06/30 09:46:28;;;;;;;;;5.67;5.33;;;;;27.01;42.80;100837.41;4849932;29;45661;-73
2023/06/30 09:48:55;;;;;;;;;4.67;4.67;;;;;27.00;42.47;100832.00;4851572;29;45424;-73
2023/06/30 09:51:21;;;;;;;;;5.67;4.33;;;;;26.91;42.05;100827.94;4841265;29;45459;-72
2023/06/30 09:53:46;;;;;;;;;4.00;4.00;;;;;26.87;40.37;100827.22;4831552;29;46089;-74
2023/06/30 09:56:31;;;;;;;;;3.25;3.25;;;;;26.85;41.07;100820.94;4830929;29;45475;-73
2023/06/30 09:59:24;;;;;;;;;5.00;5.00;;;;;26.78;41.76;100816.75;4855861;29;45425;-75
2023/06/30 10:01:53;;;;;;;;;6.50;6.50;;;;;27.01;42.32;100821.03;4829259;29;45547;-73
2023/06/30 10:04:22;;;;;;;;;8.00;7.00;;;;;27.27;41.54;100810.59;4840740;29;45519;-74
2023/06/30 10:06:50;;;;;;;;;4.25;4.25;;;;;27.54;41.89;100808.16;4834545;29;45532;-73
2023/06/30 10:09:16;;;;;;;;;6.67;5.00;;;;;27.53;41.55;100807.28;4856653;29;45562;-75
2023/06/30 10:11:44;;;;;;;;;4.75;4.75;;;;;27.44;41.41;100798.72;4836527;29;45424;-73
2023/06/30 10:14:15;;;;;;;;;4.67;4.00;;;;;27.44;40.98;100806.91;4835586;29;45505;-73
2023/06/30 10:16:41;;;;;;;;;3.75;3.75;;;;;27.39;41.48;100806.28;4835977;29;45446;-74
2023/06/30 10:19:08;;;;;;;;;5.67;5.67;;;;;27.58;41.87;100801.56;4841461;29;45484;-74
2023/06/30 10:21:35;;;;;;;;;6.00;6.00;;;;;27.70;41.70;100806.31;4832588;29;45721;-73
2023/06/30 10:24:02;;;;;;;;;7.00;5.67;;;;;27.59;41.44;100792.41;4842183;29;47898;-74
2023/06/30 10:26:29;;;;;;;;;3.67;3.67;;;;;27.56;40.23;100797.16;4834228;29;45548;-74
2023/06/30 10:28:55;;;;;;;;;4.67;4.67;;;;;27.44;40.44;100793.25;4853291;29;45611;-73
2023/06/30 10:31:22;;;;;;;;;3.33;3.33;;;;;27.39;40.38;100792.63;4846589;29;45477;-72
2023/06/30 10:33:47;;;;;;;;;5.00;5.00;;;;;27.18;40.53;100791.94;4844592;29;46261;-74
2023/06/30 10:36:20;;;;;;;;;5.00;4.00;;;;;27.26;41.26;100795.16;4837355;29;45416;-76
2023/06/30 10:38:46;;;;;;;;;3.75;3.75;;;;;27.20;41.43;100799.06;4846198;29;44814;-73
2023/06/30 10:41:19;;;;;;;;;3.00;3.00;;;;;27.18;40.90;100811.91;4844787;29;44879;-75
2023/06/30 10:47:07;;;;;;;;;3.00;3.00;;;;;26.79;41.71;100799.44;4847065;29;45637;-73
2023/06/30 10:49:35;;;;;;;;;4.00;4.00;;;;;26.88;41.55;100809.84;4837727;29;44910;-74
2023/06/30 10:52:28;;;;;;;;;4.33;4.33;;;;;27.21;41.60;100795.38;4854663;29;45438;-73
2023/06/30 10:54:54;;;;;;;;;4.00;4.00;;;;;27.24;41.97;100795.22;4845653;29;45788;-74
2023/06/30 10:57:28;;;;;;;;;4.33;4.33;;;;;27.64;40.31;100800.34;4846802;29;45912;-75
2023/06/30 11:00:11;;;;;;;;;28.67;27.33;;;;;27.71;40.83;100788.06;4843267;29;45592;-74
2023/06/30 11:02:57;;;;;;;;;12.33;10.67;;;;;27.74;40.59;100802.44;4855698;29;45928;-74
2023/06/30 11:05:28;;;;;;;;;30.00;28.00;;;;;27.81;41.10;100802.97;4857506;29;46846;-74
2023/06/30 11:08:14;;;;;;;;;52.00;41.33;;;;;27.81;40.21;100796.63;4842712;29;45559;-75
2023/06/30 11:10:46;;;;;;;;;6.33;5.67;;;;;27.86;38.94;100806.34;4853324;29;44776;-74
2023/06/30 11:13:16;;;;;;;;;4.67;4.00;;;;;27.78;40.19;100799.56;4841197;29;45442;-76
2023/06/30 11:15:42;;;;;;;;;11.00;11.00;;;;;27.88;40.14;100792.63;4843105;29;46084;-74
2023/06/30 11:18:22;;;;;;;;;3.67;3.67;;;;;28.06;38.46;100797.03;4842537;29;45527;-74
2023/06/30 11:21:05;;;;;;;;;4.00;4.00;;;;;28.06;39.13;100797.03;4869725;29;44789;-75
2023/06/30 11:23:38;;;;;;;;;3.33;3.33;;;;;28.11;38.15;100783.94;4837838;29;45484;-73